TimeEST,TemperatureF,Dew PointF,Humidity,Sea Level PressureIn,VisibilityMPH,Wind Direction,Wind SpeedMPH,Gust SpeedMPH,PrecipitationIn,Events,Conditions,WindDirDegrees,DateUTC
12:53 AM,26.1,21.9,84,30.30,9.0,Calm,Calm,-,N/A,,Clear,0,2013-01-08 05:53:00
1:53 AM,21.9,19.9,92,30.31,5.0,Calm,Calm,-,N/A,,Clear,0,2013-01-08 06:53:00
2:53 AM,21.0,19.9,96,30.33,5.0,South,4.6,-,N/A,,Clear,180,2013-01-08 07:53:00
3:53 AM,24.1,21.0,88,30.31,7.0,Calm,Calm,-,N/A,,Clear,0,2013-01-08 08:53:00
4:53 AM,23.0,19.9,88,30.32,6.0,Calm,Calm,-,N/A,,Clear,0,2013-01-08 09:53:00
5:53 AM,21.0,19.0,92,30.35,5.0,South,4.6,-,N/A,,Clear,190,2013-01-08 10:53:00
7:53 AM,23.0,19.9,88,30.39,6.0,Calm,Calm,-,N/A,,Clear,0,2013-01-08 12:53:00
8:53 AM,28.0,23.0,81,30.40,8.0,Calm,Calm,-,N/A,,Clear,0,2013-01-08 13:53:00
9:53 AM,33.1,26.1,75,30.41,9.0,Calm,Calm,-,N/A,,Clear,0,2013-01-08 14:53:00
10:53 AM,41.0,26.1,55,30.40,10.0,SSW,8.1,-,N/A,,Clear,200,2013-01-08 15:53:00
11:53 AM,43.0,26.1,51,30.39,10.0,SW,8.1,-,N/A,,Clear,220,2013-01-08 16:53:00
12:53 PM,45.0,27.0,49,30.37,10.0,SW,8.1,-,N/A,,Clear,220,2013-01-08 17:53:00
1:53 PM,46.9,28.0,48,30.36,10.0,WSW,11.5,-,N/A,,Clear,240,2013-01-08 18:53:00
2:53 PM,46.9,28.0,48,30.36,10.0,WSW,11.5,-,N/A,,Mostly Cloudy,240,2013-01-08 19:53:00
4:53 PM,46.9,28.0,48,30.37,10.0,Calm,Calm,-,N/A,,Clear,0,2013-01-08 21:53:00
5:53 PM,43.0,28.0,56,30.37,10.0,Calm,Calm,-,N/A,,Clear,0,2013-01-08 22:53:00
6:53 PM,39.0,28.0,65,30.37,10.0,Calm,Calm,-,N/A,,Clear,0,2013-01-08 23:53:00
7:53 PM,36.0,27.0,70,30.37,10.0,Calm,Calm,-,N/A,,Clear,0,2013-01-09 00:53:00
8:53 PM,33.1,27.0,78,30.38,10.0,Calm,Calm,-,N/A,,Clear,0,2013-01-09 01:53:00
9:53 PM,34.0,27.0,75,30.36,10.0,Calm,Calm,-,N/A,,Clear,0,2013-01-09 02:53:00
10:53 PM,34.0,27.0,75,30.35,10.0,Calm,Calm,-,N/A,,Clear,0,2013-01-09 03:53:00